sensor_id;sensor_type;location;lat;lon;timestamp;pressure;altitude;pressure_sealevel;temperature;humidity
16690;BME280;8458;52.220;9.884;2023-05-03T00:01:18;102039.31;;;7.91;69.53
16690;BME280;8458;52.220;9.884;2023-05-03T00:03:45;102033.59;;;7.86;69.50
16690;BME280;8458;52.220;9.884;2023-05-03T00:06:14;102034.84;;;7.83;69.67
16690;BME280;8458;52.220;9.884;2023-05-03T00:08:41;102034.03;;;7.63;70.34
16690;BME280;8458;52.220;9.884;2023-05-03T00:11:08;102036.56;;;7.64;70.41
16690;BME280;8458;52.220;9.884;2023-05-03T00:13:35;102043.38;;;7.55;70.63
16690;BME280;8458;52.220;9.884;2023-05-03T00:16:02;102037.00;;;7.61;70.59
16690;BME280;8458;52.220;9.884;2023-05-03T00:18:30;102042.09;;;7.58;70.70
16690;BME280;8458;52.220;9.884;2023-05-03T00:20:57;102039.56;;;7.56;70.55
16690;BME280;8458;52.220;9.884;2023-05-03T00:23:23;102042.53;;;7.54;70.32
16690;BME280;8458;52.220;9.884;2023-05-03T00:25:52;102043.78;;;7.52;70.14
16690;BME280;8458;52.220;9.884;2023-05-03T00:28:18;102045.50;;;7.53;70.02
16690;BME280;8458;52.220;9.884;2023-05-03T00:30:45;102036.56;;;7.51;70.35
16690;BME280;8458;52.220;9.884;2023-05-03T00:33:11;102037.63;;;7.50;70.60
16690;BME280;8458;52.220;9.884;2023-05-03T00:35:39;102035.06;;;7.42;70.75
16690;BME280;8458;52.220;9.884;2023-05-03T00:38:06;102041.25;;;7.50;70.53
16690;BME280;8458;52.220;9.884;2023-05-03T00:40:32;102037.63;;;7.50;70.64
16690;BME280;8458;52.220;9.884;2023-05-03T00:42:58;102044.22;;;7.49;70.44
16690;BME280;8458;52.220;9.884;2023-05-03T00:45:25;102035.72;;;7.50;70.57
16690;BME280;8458;52.220;9.884;2023-05-03T00:47:52;102031.03;;;7.44;70.80
16690;BME280;8458;52.220;9.884;2023-05-03T00:50:18;102038.91;;;7.47;70.42
16690;BME280;8458;52.220;9.884;2023-05-03T00:52:46;102039.53;;;7.43;70.53
16690;BME280;8458;52.220;9.884;2023-05-03T00:55:14;102036.56;;;7.38;70.58
16690;BME280;8458;52.220;9.884;2023-05-03T00:57:40;102032.72;;;7.32;70.90
16690;BME280;8458;52.220;9.884;2023-05-03T01:00:08;102031.66;;;7.26;71.05
16690;BME280;8458;52.220;9.884;2023-05-03T01:02:37;102038.66;;;7.22;71.02
16690;BME280;8458;52.220;9.884;2023-05-03T01:05:05;102033.56;;;7.19;71.16
16690;BME280;8458;52.220;9.884;2023-05-03T01:07:39;102027.38;;;7.17;71.29
16690;BME280;8458;52.220;9.884;2023-05-03T01:10:19;102029.09;;;7.18;71.39
16690;BME280;8458;52.220;9.884;2023-05-03T01:12:53;102033.78;;;7.17;70.88
16690;BME280;8458;52.220;9.884;2023-05-03T01:15:31;102031.66;;;7.13;70.91
16690;BME280;8458;52.220;9.884;2023-05-03T01:18:08;102022.50;;;7.06;70.91
16690;BME280;8458;52.220;9.884;2023-05-03T01:20:36;102031.41;;;7.08;71.31
16690;BME280;8458;52.220;9.884;2023-05-03T01:23:06;102033.53;;;6.99;71.20
16690;BME280;8458;52.220;9.884;2023-05-03T01:25:37;102040.72;;;7.00;71.36
16690;BME280;8458;52.220;9.884;2023-05-03T01:28:04;102031.19;;;7.03;70.91
16690;BME280;8458;52.220;9.884;2023-05-03T01:30:31;102028.44;;;7.03;70.86
16690;BME280;8458;52.220;9.884;2023-05-03T01:33:02;102037.97;;;7.00;70.60
16690;BME280;8458;52.220;9.884;2023-05-03T01:35:35;102037.72;;;6.88;70.99
16690;BME280;8458;52.220;9.884;2023-05-03T01:38:02;102042.59;;;6.86;71.23
16690;BME280;8458;52.220;9.884;2023-05-03T01:40:31;102040.91;;;6.85;71.52
16690;BME280;8458;52.220;9.884;2023-05-03T01:43:03;102040.50;;;6.88;71.72
16690;BME280;8458;52.220;9.884;2023-05-03T01:45:30;102050.84;;;6.79;72.12
16690;BME280;8458;52.220;9.884;2023-05-03T01:47:56;102037.25;;;6.78;72.33
16690;BME280;8458;52.220;9.884;2023-05-03T01:50:23;102042.78;;;6.85;71.99
16690;BME280;8458;52.220;9.884;2023-05-03T01:52:49;102044.50;;;6.79;71.97
16690;BME280;8458;52.220;9.884;2023-05-03T01:55:16;102037.47;;;6.76;72.26
16690;BME280;8458;52.220;9.884;2023-05-03T01:57:43;102040.44;;;6.75;71.97
16690;BME280;8458;52.220;9.884;2023-05-03T02:00:12;102040.22;;;6.70;71.99
16690;BME280;8458;52.220;9.884;2023-05-03T02:02:39;102042.75;;;6.71;71.83
16690;BME280;8458;52.220;9.884;2023-05-03T02:05:05;102049.53;;;6.69;71.94
16690;BME280;8458;52.220;9.884;2023-05-03T02:07:32;102045.25;;;6.59;71.87
16690;BME280;8458;52.220;9.884;2023-05-03T02:09:58;102041.25;;;6.62;71.80
16690;BME280;8458;52.220;9.884;2023-05-03T02:12:25;102052.69;;;6.66;71.80
16690;BME280;8458;52.220;9.884;2023-05-03T02:14:51;102045.03;;;6.61;71.72
16690;BME280;8458;52.220;9.884;2023-05-03T02:17:19;102046.97;;;6.60;71.39
16690;BME280;8458;52.220;9.884;2023-05-03T02:19:46;102054.59;;;6.58;71.10
16690;BME280;8458;52.220;9.884;2023-05-03T02:22:12;102050.09;;;6.51;71.11
16690;BME280;8458;52.220;9.884;2023-05-03T02:24:39;102053.66;;;6.44;71.35
16690;BME280;8458;52.220;9.884;2023-05-03T02:27:05;102054.03;;;6.35;71.56
16690;BME280;8458;52.220;9.884;2023-05-03T02:29:32;102052.38;;;6.40;71.61
16690;BME280;8458;52.220;9.884;2023-05-03T02:31:58;102062.09;;;6.36;71.60
16690;BME280;8458;52.220;9.884;2023-05-03T02:34:26;102065.50;;;6.38;71.39
16690;BME280;8458;52.220;9.884;2023-05-03T02:36:53;102064.59;;;6.31;71.31
16690;BME280;8458;52.220;9.884;2023-05-03T02:39:19;102063.09;;;6.28;71.51
16690;BME280;8458;52.220;9.884;2023-05-03T02:41:46;102065.44;;;6.32;71.26
16690;BME280;8458;52.220;9.884;2023-05-03T02:44:12;102076.47;;;6.32;71.08
16690;BME280;8458;52.220;9.884;2023-05-03T02:46:39;102075.19;;;6.27;71.01
16690;BME280;8458;52.220;9.884;2023-05-03T02:49:06;102071.56;;;6.27;71.11
16690;BME280;8458;52.220;9.884;2023-05-03T02:51:34;102077.25;;;6.19;71.54
16690;BME280;8458;52.220;9.884;2023-05-03T02:54:01;102078.69;;;6.15;71.56
16690;BME280;8458;52.220;9.884;2023-05-03T02:56:28;102071.03;;;6.10;72.16
16690;BME280;8458;52.220;9.884;2023-05-03T02:58:54;102071.03;;;6.10;71.88
16690;BME280;8458;52.220;9.884;2023-05-03T03:01:20;102071.69;;;6.12;72.07
16690;BME280;8458;52.220;9.884;2023-05-03T03:03:47;102070.41;;;6.08;72.04
16690;BME280;8458;52.220;9.884;2023-05-03T03:06:14;102079.06;;;6.05;72.09
16690;BME280;8458;52.220;9.884;2023-05-03T03:08:41;102074.59;;;6.04;71.92
16690;BME280;8458;52.220;9.884;2023-05-03T03:11:08;102073.75;;;6.03;71.74
16690;BME280;8458;52.220;9.884;2023-05-03T03:13:34;102082.22;;;6.02;71.70
16690;BME280;8458;52.220;9.884;2023-05-03T03:16:04;102075.00;;;6.01;72.04
16690;BME280;8458;52.220;9.884;2023-05-03T03:18:30;102083.44;;;5.99;71.99
16690;BME280;8458;52.220;9.884;2023-05-03T03:20:59;102082.81;;;5.97;72.72
16690;BME280;8458;52.220;9.884;2023-05-03T03:23:26;102079.97;;;5.90;73.21
16690;BME280;8458;52.220;9.884;2023-05-03T03:25:54;102081.19;;;5.81;73.38
16690;BME280;8458;52.220;9.884;2023-05-03T03:28:20;102080.09;;;5.82;73.81
16690;BME280;8458;52.220;9.884;2023-05-03T03:30:47;102081.19;;;5.81;73.71
16690;BME280;8458;52.220;9.884;2023-05-03T03:33:13;102083.34;;;5.86;73.77
16690;BME280;8458;52.220;9.884;2023-05-03T03:35:40;102086.69;;;5.81;73.92
16690;BME280;8458;52.220;9.884;2023-05-03T03:38:06;102090.03;;;5.77;73.84
16690;BME280;8458;52.220;9.884;2023-05-03T03:40:33;102076.47;;;5.75;74.04
16690;BME280;8458;52.220;9.884;2023-05-03T03:43:01;102082.88;;;5.61;74.81
16690;BME280;8458;52.220;9.884;2023-05-03T03:45:28;102082.78;;;5.69;74.75
16690;BME280;8458;52.220;9.884;2023-05-03T03:47:54;102081.00;;;5.61;74.97
16690;BME280;8458;52.220;9.884;2023-05-03T03:50:22;102080.44;;;5.44;75.65
16690;BME280;8458;52.220;9.884;2023-05-03T03:52:48;102080.72;;;5.34;75.83
16690;BME280;8458;52.220;9.884;2023-05-03T03:55:15;102084.16;;;5.36;75.90
16690;BME280;8458;52.220;9.884;2023-05-03T03:57:41;102085.84;;;5.37;76.15
16690;BME280;8458;52.220;9.884;2023-05-03T04:00:10;102096.53;;;5.47;76.20
16690;BME280;8458;52.220;9.884;2023-05-03T04:02:37;102085.25;;;5.42;76.07
16690;BME280;8458;52.220;9.884;2023-05-03T04:05:04;102086.72;;;5.38;76.37
16690;BME280;8458;52.220;9.884;2023-05-03T04:07:32;102086.41;;;5.33;76.50
16690;BME280;8458;52.220;9.884;2023-05-03T04:09:58;102087.09;;;5.35;76.56
16690;BME280;8458;52.220;9.884;2023-05-03T04:12:25;102080.72;;;5.34;76.82
16690;BME280;8458;52.220;9.884;2023-05-03T04:14:52;102084.22;;;5.43;76.41
16690;BME280;8458;52.220;9.884;2023-05-03T04:17:20;102079.56;;;5.44;76.52
16690;BME280;8458;52.220;9.884;2023-05-03T04:19:46;102078.56;;;5.51;76.40
16690;BME280;8458;52.220;9.884;2023-05-03T04:22:13;102080.72;;;5.34;76.32
16690;BME280;8458;52.220;9.884;2023-05-03T04:24:39;102077.53;;;5.31;76.65
16690;BME280;8458;52.220;9.884;2023-05-03T04:27:07;102080.94;;;5.33;76.53
16690;BME280;8458;52.220;9.884;2023-05-03T04:29:33;102082.50;;;5.42;76.39
16690;BME280;8458;52.220;9.884;2023-05-03T04:32:03;102081.22;;;5.38;76.64
16690;BME280;8458;52.220;9.884;2023-05-03T04:34:32;102086.22;;;5.34;77.01
16690;BME280;8458;52.220;9.884;2023-05-03T04:36:58;102083.56;;;5.41;76.87
16690;BME280;8458;52.220;9.884;2023-05-03T04:39:25;102090.09;;;5.40;76.99
16690;BME280;8458;52.220;9.884;2023-05-03T04:41:52;102089.47;;;5.38;76.78
16690;BME280;8458;52.220;9.884;2023-05-03T04:44:18;102085.94;;;5.44;76.76
16690;BME280;8458;52.220;9.884;2023-05-03T04:46:45;102085.94;;;5.44;76.47
16690;BME280;8458;52.220;9.884;2023-05-03T04:49:11;102096.25;;;5.42;76.59
16690;BME280;8458;52.220;9.884;2023-05-03T04:51:39;102097.91;;;5.36;77.21
16690;BME280;8458;52.220;9.884;2023-05-03T04:54:06;102099.19;;;5.41;77.43
16690;BME280;8458;52.220;9.884;2023-05-03T04:56:33;102097.72;;;5.38;77.43
16690;BME280;8458;52.220;9.884;2023-05-03T04:59:00;102100.31;;;5.46;77.64
16690;BME280;8458;52.220;9.884;2023-05-03T05:01:26;102099.69;;;5.44;77.53
16690;BME280;8458;52.220;9.884;2023-05-03T05:03:53;102096.59;;;5.54;77.49
16690;BME280;8458;52.220;9.884;2023-05-03T05:06:20;102096.59;;;5.54;77.56
16690;BME280;8458;52.220;9.884;2023-05-03T05:08:49;102098.75;;;5.59;77.90
16690;BME280;8458;52.220;9.884;2023-05-03T05:11:15;102101.50;;;5.59;77.60
16690;BME280;8458;52.220;9.884;2023-05-03T05:13:43;102102.75;;;5.56;78.33
16690;BME280;8458;52.220;9.884;2023-05-03T05:16:09;102098.59;;;5.67;78.30
16690;BME280;8458;52.220;9.884;2023-05-03T05:18:36;102099.78;;;5.79;78.05
16690;BME280;8458;52.220;9.884;2023-05-03T05:21:03;102106.75;;;5.75;78.13
16690;BME280;8458;52.220;9.884;2023-05-03T05:23:30;102107.00;;;5.80;78.33
16690;BME280;8458;52.220;9.884;2023-05-03T05:25:57;102098.16;;;5.85;78.42
16690;BME280;8458;52.220;9.884;2023-05-03T05:28:25;102110.00;;;5.85;78.75
16690;BME280;8458;52.220;9.884;2023-05-03T05:30:51;102104.56;;;5.92;78.97
16690;BME280;8458;52.220;9.884;2023-05-03T05:33:18;102109.34;;;5.83;79.33
16690;BME280;8458;52.220;9.884;2023-05-03T05:35:46;102118.13;;;5.93;79.69
16690;BME280;8458;52.220;9.884;2023-05-03T05:38:14;102118.00;;;5.80;80.02
16690;BME280;8458;52.220;9.884;2023-05-03T05:40:41;102117.88;;;5.67;81.20
16690;BME280;8458;52.220;9.884;2023-05-03T05:43:09;102123.47;;;5.73;81.46
16690;BME280;8458;52.220;9.884;2023-05-03T05:45:35;102130.34;;;5.84;81.95
16690;BME280;8458;52.220;9.884;2023-05-03T05:48:03;102135.97;;;5.98;81.43
16690;BME280;8458;52.220;9.884;2023-05-03T05:50:30;102148.31;;;6.02;81.40
16690;BME280;8458;52.220;9.884;2023-05-03T05:52:56;102133.91;;;6.00;81.93
16690;BME280;8458;52.220;9.884;2023-05-03T05:55:23;102135.19;;;6.04;82.61
16690;BME280;8458;52.220;9.884;2023-05-03T05:57:49;102136.09;;;6.11;82.96
16690;BME280;8458;52.220;9.884;2023-05-03T06:00:18;102137.84;;;6.19;83.26
16690;BME280;8458;52.220;9.884;2023-05-03T06:02:45;102136.22;;;6.24;83.53
16690;BME280;8458;52.220;9.884;2023-05-03T06:05:13;102137.34;;;6.37;83.04
16690;BME280;8458;52.220;9.884;2023-05-03T06:07:39;102143.75;;;6.44;83.24
16690;BME280;8458;52.220;9.884;2023-05-03T06:10:06;102138.03;;;6.45;83.19
16690;BME280;8458;52.220;9.884;2023-05-03T06:12:33;102141.47;;;6.54;83.09
16690;BME280;8458;52.220;9.884;2023-05-03T06:15:00;102138.56;;;6.62;82.76
16690;BME280;8458;52.220;9.884;2023-05-03T06:17:28;102137.97;;;6.74;82.82
16690;BME280;8458;52.220;9.884;2023-05-03T06:19:55;102139.91;;;6.80;82.58
16690;BME280;8458;52.220;9.884;2023-05-03T06:22:22;102145.50;;;6.93;82.12
16690;BME280;8458;52.220;9.884;2023-05-03T06:24:48;102138.97;;;7.08;81.47
16690;BME280;8458;52.220;9.884;2023-05-03T06:27:15;102142.84;;;7.13;81.49
16690;BME280;8458;52.220;9.884;2023-05-03T06:29:41;102151.38;;;7.25;80.61
16690;BME280;8458;52.220;9.884;2023-05-03T06:32:09;102156.47;;;7.28;79.22
16690;BME280;8458;52.220;9.884;2023-05-03T06:34:37;102155.03;;;7.39;78.92
16690;BME280;8458;52.220;9.884;2023-05-03T06:37:03;102155.91;;;7.53;78.38
16690;BME280;8458;52.220;9.884;2023-05-03T06:39:30;102162.28;;;7.60;78.01
16690;BME280;8458;52.220;9.884;2023-05-03T06:41:57;102154.66;;;7.76;77.53
16690;BME280;8458;52.220;9.884;2023-05-03T06:44:23;102161.06;;;7.96;77.45
16690;BME280;8458;52.220;9.884;2023-05-03T06:46:50;102163.59;;;8.18;76.72
16690;BME280;8458;52.220;9.884;2023-05-03T06:49:16;102153.41;;;8.38;75.99
16690;BME280;8458;52.220;9.884;2023-05-03T06:51:44;102163.63;;;8.51;75.60
16690;BME280;8458;52.220;9.884;2023-05-03T06:54:11;102169.13;;;8.58;74.83
16690;BME280;8458;52.220;9.884;2023-05-03T06:56:38;102163.19;;;8.68;73.99
16690;BME280;8458;52.220;9.884;2023-05-03T06:59:06;102159.53;;;8.67;71.95
16690;BME280;8458;52.220;9.884;2023-05-03T07:01:33;102159.34;;;8.75;71.17
16690;BME280;8458;52.220;9.884;2023-05-03T07:03:59;102152.88;;;8.95;71.30
16690;BME280;8458;52.220;9.884;2023-05-03T07:06:26;102155.78;;;9.13;71.29
16690;BME280;8458;52.220;9.884;2023-05-03T07:08:54;102158.22;;;9.35;71.09
16690;BME280;8458;52.220;9.884;2023-05-03T07:11:21;102153.06;;;9.45;69.67
16690;BME280;8458;52.220;9.884;2023-05-03T07:13:48;102162.00;;;9.47;68.23
16690;BME280;8458;52.220;9.884;2023-05-03T07:16:14;102165.16;;;9.58;67.04
16690;BME280;8458;52.220;9.884;2023-05-03T07:18:41;102155.06;;;9.70;66.25
16690;BME280;8458;52.220;9.884;2023-05-03T07:21:08;102154.78;;;9.78;65.46
16690;BME280;8458;52.220;9.884;2023-05-03T07:23:35;102152.81;;;9.85;65.26
16690;BME280;8458;52.220;9.884;2023-05-03T07:26:03;102151.81;;;10.05;62.86
16690;BME280;8458;52.220;9.884;2023-05-03T07:28:29;102151.94;;;10.17;61.75
16690;BME280;8458;52.220;9.884;2023-05-03T07:30:56;102149.59;;;10.14;62.38
16690;BME280;8458;52.220;9.884;2023-05-03T07:33:23;102146.50;;;10.29;62.09
16690;BME280;8458;52.220;9.884;2023-05-03T07:35:50;102137.09;;;10.30;59.09
16690;BME280;8458;52.220;9.884;2023-05-03T07:38:16;102150.25;;;10.41;58.97
16690;BME280;8458;52.220;9.884;2023-05-03T07:40:43;102137.00;;;10.43;56.88
16690;BME280;8458;52.220;9.884;2023-05-03T07:43:11;102140.06;;;10.35;56.15
16690;BME280;8458;52.220;9.884;2023-05-03T07:45:37;102146.22;;;10.37;56.45
16690;BME280;8458;52.220;9.884;2023-05-03T07:48:04;102138.25;;;10.47;55.98
16690;BME280;8458;52.220;9.884;2023-05-03T07:50:30;102136.94;;;10.50;54.42
16690;BME280;8458;52.220;9.884;2023-05-03T07:52:57;102128.06;;;10.41;54.29
16690;BME280;8458;52.220;9.884;2023-05-03T07:55:23;102138.59;;;10.07;55.40
16690;BME280;8458;52.220;9.884;2023-05-03T07:57:50;102139.03;;;10.04;56.55
16690;BME280;8458;52.220;9.884;2023-05-03T08:00:23;102137.69;;;10.13;55.40
16690;BME280;8458;52.220;9.884;2023-05-03T08:02:50;102144.00;;;10.20;56.26
16690;BME280;8458;52.220;9.884;2023-05-03T08:05:17;102144.19;;;10.26;56.48
16690;BME280;8458;52.220;9.884;2023-05-03T08:07:43;102130.53;;;10.49;56.44
16690;BME280;8458;52.220;9.884;2023-05-03T08:10:10;102134.53;;;10.72;54.42
16690;BME280;8458;52.220;9.884;2023-05-03T08:12:37;102136.09;;;10.86;55.92
16690;BME280;8458;52.220;9.884;2023-05-03T08:15:04;102134.53;;;11.09;56.00
16690;BME280;8458;52.220;9.884;2023-05-03T08:17:39;102131.34;;;11.24;55.17
16690;BME280;8458;52.220;9.884;2023-05-03T08:20:07;102128.78;;;11.41;54.61
16690;BME280;8458;52.220;9.884;2023-05-03T08:22:33;102137.41;;;11.51;52.27
16690;BME280;8458;52.220;9.884;2023-05-03T08:25:01;102132.78;;;11.45;52.17
16690;BME280;8458;52.220;9.884;2023-05-03T08:27:28;102128.78;;;11.41;51.54
16690;BME280;8458;52.220;9.884;2023-05-03T08:29:55;102136.16;;;11.47;54.83
16690;BME280;8458;52.220;9.884;2023-05-03T08:32:21;102136.78;;;11.49;53.67
16690;BME280;8458;52.220;9.884;2023-05-03T08:34:51;102131.84;;;11.51;52.84
16690;BME280;8458;52.220;9.884;2023-05-03T08:37:17;102126.53;;;11.61;50.25
16690;BME280;8458;52.220;9.884;2023-05-03T08:39:44;102129.56;;;11.60;50.09
16690;BME280;8458;52.220;9.884;2023-05-03T08:42:11;102131.44;;;11.36;51.73
16690;BME280;8458;52.220;9.884;2023-05-03T08:44:43;102128.84;;;11.53;52.03
16690;BME280;8458;52.220;9.884;2023-05-03T08:47:11;102125.13;;;11.71;52.65
16690;BME280;8458;52.220;9.884;2023-05-03T08:49:40;102129.13;;;11.87;52.46
16690;BME280;8458;52.220;9.884;2023-05-03T08:52:08;102131.38;;;12.08;51.35
16690;BME280;8458;52.220;9.884;2023-05-03T08:54:35;102129.59;;;12.14;51.14
16690;BME280;8458;52.220;9.884;2023-05-03T08:57:02;102137.94;;;12.14;49.36
16690;BME280;8458;52.220;9.884;2023-05-03T08:59:28;102135.13;;;12.02;49.53
16690;BME280;8458;52.220;9.884;2023-05-03T09:01:55;102132.47;;;11.95;49.60
16690;BME280;8458;52.220;9.884;2023-05-03T09:04:31;102136.31;;;11.94;49.50
16690;BME280;8458;52.220;9.884;2023-05-03T09:07:09;102129.09;;;11.93;50.27
16690;BME280;8458;52.220;9.884;2023-05-03T09:09:35;102129.28;;;11.92;49.87
16690;BME280;8458;52.220;9.884;2023-05-03T09:12:02;102126.13;;;11.88;50.24
16690;BME280;8458;52.220;9.884;2023-05-03T09:14:29;102128.63;;;12.20;50.80
16690;BME280;8458;52.220;9.884;2023-05-03T09:17:13;102123.44;;;12.47;50.08
16690;BME280;8458;52.220;9.884;2023-05-03T09:19:48;102118.69;;;12.71;47.84
16690;BME280;8458;52.220;9.884;2023-05-03T09:22:18;102127.38;;;12.87;47.34
16690;BME280;8458;52.220;9.884;2023-05-03T09:24:51;102115.47;;;13.03;47.55
16690;BME280;8458;52.220;9.884;2023-05-03T09:27:18;102125.13;;;13.13;46.67
16690;BME280;8458;52.220;9.884;2023-05-03T09:29:45;102119.56;;;13.13;47.70
16690;BME280;8458;52.220;9.884;2023-05-03T09:32:13;102117.34;;;13.15;48.00
16690;BME280;8458;52.220;9.884;2023-05-03T09:34:39;102114.41;;;13.33;47.70
16690;BME280;8458;52.220;9.884;2023-05-03T09:37:06;102112.22;;;13.35;47.17
16690;BME280;8458;52.220;9.884;2023-05-03T09:39:34;102115.22;;;13.45;46.22
16690;BME280;8458;52.220;9.884;2023-05-03T09:42:09;102109.72;;;13.51;47.05
16690;BME280;8458;52.220;9.884;2023-05-03T09:44:40;102122.16;;;13.60;46.34
16690;BME280;8458;52.220;9.884;2023-05-03T09:47:07;102123.94;;;13.66;47.28
16690;BME280;8458;52.220;9.884;2023-05-03T09:49:34;102124.06;;;13.71;45.63
16690;BME280;8458;52.220;9.884;2023-05-03T09:52:01;102121.91;;;13.61;45.70
16690;BME280;8458;52.220;9.884;2023-05-03T09:54:29;102122.28;;;13.65;46.91
16690;BME280;8458;52.220;9.884;2023-05-03T09:56:57;102110.91;;;13.84;47.44
16690;BME280;8458;52.220;9.884;2023-05-03T09:59:25;102109.97;;;13.95;46.76
16690;BME280;8458;52.220;9.884;2023-05-03T10:01:55;102104.88;;;14.09;45.36
16690;BME280;8458;52.220;9.884;2023-05-03T10:04:24;102103.53;;;14.11;45.60
16690;BME280;8458;52.220;9.884;2023-05-03T10:06:52;102103.09;;;14.20;45.09
16690;BME280;8458;52.220;9.884;2023-05-03T10:09:28;102100.13;;;14.26;44.69
16690;BME280;8458;52.220;9.884;2023-05-03T10:11:58;102100.81;;;14.16;45.91
16690;BME280;8458;52.220;9.884;2023-05-03T10:14:26;102101.00;;;14.27;44.83
16690;BME280;8458;52.220;9.884;2023-05-03T10:16:57;102092.03;;;14.25;45.07
16690;BME280;8458;52.220;9.884;2023-05-03T10:19:28;102098.84;;;14.34;46.26
16690;BME280;8458;52.220;9.884;2023-05-03T10:22:02;102093.22;;;14.29;46.11
16690;BME280;8458;52.220;9.884;2023-05-03T10:24:29;102106.09;;;14.13;46.02
16690;BME280;8458;52.220;9.884;2023-05-03T10:26:55;102103.28;;;14.13;45.14
16690;BME280;8458;52.220;9.884;2023-05-03T10:29:46;102098.13;;;14.05;47.18
16690;BME280;8458;52.220;9.884;2023-05-03T10:32:30;102100.63;;;14.23;46.61
16690;BME280;8458;52.220;9.884;2023-05-03T10:34:59;102086.16;;;14.43;45.38
16690;BME280;8458;52.220;9.884;2023-05-03T10:37:26;102089.50;;;14.62;46.39
16690;BME280;8458;52.220;9.884;2023-05-03T10:39:53;102086.88;;;14.73;45.31
16690;BME280;8458;52.220;9.884;2023-05-03T10:42:21;102086.56;;;14.69;45.01
16690;BME280;8458;52.220;9.884;2023-05-03T10:44:53;102084.84;;;14.68;45.27
16690;BME280;8458;52.220;9.884;2023-05-03T10:47:21;102075.03;;;14.65;44.29
16690;BME280;8458;52.220;9.884;2023-05-03T10:52:48;102082.94;;;14.91;43.89
16690;BME280;8458;52.220;9.884;2023-05-03T10:55:16;102087.13;;;14.93;43.55
16690;BME280;8458;52.220;9.884;2023-05-03T10:57:44;102085.00;;;14.78;44.75
16690;BME280;8458;52.220;9.884;2023-05-03T11:00:17;102080.75;;;14.98;43.75
16690;BME280;8458;52.220;9.884;2023-05-03T11:03:01;102079.66;;;14.99;44.23
16690;BME280;8458;52.220;9.884;2023-05-03T11:05:29;102070.81;;;15.07;44.12
16690;BME280;8458;52.220;9.884;2023-05-03T11:08:07;102074.69;;;15.28;43.80
16690;BME280;8458;52.220;9.884;2023-05-03T11:10:33;102076.16;;;15.36;43.33
16690;BME280;8458;52.220;9.884;2023-05-03T11:13:00;102070.19;;;15.54;45.50
16690;BME280;8458;52.220;9.884;2023-05-03T11:15:28;102064.13;;;15.63;42.46
16690;BME280;8458;52.220;9.884;2023-05-03T11:17:55;102060.88;;;15.44;43.63
16690;BME280;8458;52.220;9.884;2023-05-03T11:20:22;102061.78;;;15.49;43.59
16690;BME280;8458;52.220;9.884;2023-05-03T11:22:49;102046.97;;;15.81;42.76
16690;BME280;8458;52.220;9.884;2023-05-03T11:25:15;102052.03;;;15.84;42.36
16690;BME280;8458;52.220;9.884;2023-05-03T11:27:42;102052.25;;;15.77;41.57
16690;BME280;8458;52.220;9.884;2023-05-03T11:30:09;102049.69;;;15.76;42.08
16690;BME280;8458;52.220;9.884;2023-05-03T11:32:37;102063.75;;;15.81;41.89
16690;BME280;8458;52.220;9.884;2023-05-03T11:35:05;102051.34;;;16.04;43.51
16690;BME280;8458;52.220;9.884;2023-05-03T11:37:32;102047.88;;;16.29;41.91
16690;BME280;8458;52.220;9.884;2023-05-03T11:39:59;102045.19;;;16.50;42.26
16690;BME280;8458;52.220;9.884;2023-05-03T11:42:25;102048.38;;;16.69;41.95
16690;BME280;8458;52.220;9.884;2023-05-03T11:44:53;102049.06;;;16.92;41.45
16690;BME280;8458;52.220;9.884;2023-05-03T11:47:19;102038.59;;;16.82;42.16
16690;BME280;8458;52.220;9.884;2023-05-03T11:49:51;102031.38;;;16.91;41.85
16690;BME280;8458;52.220;9.884;2023-05-03T11:52:20;102038.44;;;17.04;42.27
16690;BME280;8458;52.220;9.884;2023-05-03T11:54:47;102035.97;;;17.23;41.90
16690;BME280;8458;52.220;9.884;2023-05-03T11:57:13;102033.66;;;17.05;41.37
16690;BME280;8458;52.220;9.884;2023-05-03T11:59:40;102035.41;;;17.31;40.44
16690;BME280;8458;52.220;9.884;2023-05-03T12:02:09;102041.53;;;17.18;40.47
16690;BME280;8458;52.220;9.884;2023-05-03T12:04:37;102040.44;;;17.19;40.86
16690;BME280;8458;52.220;9.884;2023-05-03T12:07:08;102040.72;;;17.28;41.07
16690;BME280;8458;52.220;9.884;2023-05-03T12:09:35;102033.72;;;17.30;41.92
16690;BME280;8458;52.220;9.884;2023-05-03T12:12:02;102028.13;;;17.46;40.94
16690;BME280;8458;52.220;9.884;2023-05-03T12:14:55;102028.69;;;17.58;40.65
16690;BME280;8458;52.220;9.884;2023-05-03T12:17:35;102023.66;;;17.76;39.81
16690;BME280;8458;52.220;9.884;2023-05-03T12:20:16;102019.72;;;17.87;40.67
16690;BME280;8458;52.220;9.884;2023-05-03T12:22:46;102010.75;;;17.74;39.00
16690;BME280;8458;52.220;9.884;2023-05-03T12:25:13;102001.78;;;17.62;40.34
16690;BME280;8458;52.220;9.884;2023-05-03T12:27:39;102002.91;;;17.66;40.75
16690;BME280;8458;52.220;9.884;2023-05-03T12:30:07;102015.25;;;17.50;40.70
16690;BME280;8458;52.220;9.884;2023-05-03T12:32:34;101995.59;;;17.65;39.74
16690;BME280;8458;52.220;9.884;2023-05-03T12:35:01;101984.97;;;17.72;39.97
16690;BME280;8458;52.220;9.884;2023-05-03T12:37:27;101988.31;;;17.85;39.80
16690;BME280;8458;52.220;9.884;2023-05-03T12:39:55;101988.88;;;17.97;41.72
16690;BME280;8458;52.220;9.884;2023-05-03T12:42:22;101989.41;;;18.09;40.57
16690;BME280;8458;52.220;9.884;2023-05-03T12:44:48;101981.75;;;18.31;40.16
16690;BME280;8458;52.220;9.884;2023-05-03T12:47:15;101980.31;;;18.38;40.93
16690;BME280;8458;52.220;9.884;2023-05-03T12:49:41;101976.91;;;18.52;41.16
16690;BME280;8458;52.220;9.884;2023-05-03T12:52:08;101967.34;;;18.53;38.90
16690;BME280;8458;52.220;9.884;2023-05-03T12:54:35;101969.69;;;18.40;39.15
16690;BME280;8458;52.220;9.884;2023-05-03T12:57:03;101969.16;;;18.23;39.96
16690;BME280;8458;52.220;9.884;2023-05-03T12:59:30;101978.75;;;18.06;40.33
16690;BME280;8458;52.220;9.884;2023-05-03T13:01:56;101972.00;;;18.13;39.51
16690;BME280;8458;52.220;9.884;2023-05-03T13:04:23;101976.44;;;18.29;38.41
16690;BME280;8458;52.220;9.884;2023-05-03T13:06:49;101970.81;;;18.29;39.84
16690;BME280;8458;52.220;9.884;2023-05-03T13:09:17;101972.47;;;18.40;39.48
16690;BME280;8458;52.220;9.884;2023-05-03T13:11:44;101968.41;;;18.62;39.59
16690;BME280;8458;52.220;9.884;2023-05-03T13:14:15;101956.22;;;18.82;38.71